sensor_id;sensor_type;location;lat;lon;timestamp;temperature;humidity
11126;DHT22;5617;54.046;10.676;2022-07-03T00:01:11;18.30;99.90
11126;DHT22;5617;54.046;10.676;2022-07-03T00:03:20;18.30;99.90
11126;DHT22;5617;54.046;10.676;2022-07-03T00:05:28;18.30;99.90
11126;DHT22;5617;54.046;10.676;2022-07-03T00:07:37;18.30;99.90
11126;DHT22;5617;54.046;10.676;2022-07-03T00:09:45;18.30;99.90
11126;DHT22;5617;54.046;10.676;2022-07-03T00:11:53;18.30;99.90
11126;DHT22;5617;54.046;10.676;2022-07-03T00:14:00;18.40;99.90
11126;DHT22;5617;54.046;10.676;2022-07-03T00:16:08;18.40;99.90
11126;DHT22;5617;54.046;10.676;2022-07-03T00:18:15;18.40;99.90
11126;DHT22;5617;54.046;10.676;2022-07-03T00:20:28;18.40;99.90
11126;DHT22;5617;54.046;10.676;2022-07-03T00:22:40;18.40;99.90
11126;DHT22;5617;54.046;10.676;2022-07-03T00:24:51;18.40;99.90
11126;DHT22;5617;54.046;10.676;2022-07-03T00:27:00;18.40;99.90
11126;DHT22;5617;54.046;10.676;2022-07-03T00:29:09;18.40;99.90
11126;DHT22;5617;54.046;10.676;2022-07-03T00:31:17;18.50;99.90
11126;DHT22;5617;54.046;10.676;2022-07-03T00:33:27;18.50;99.90
11126;DHT22;5617;54.046;10.676;2022-07-03T00:35:37;18.50;99.90
11126;DHT22;5617;54.046;10.676;2022-07-03T00:37:46;18.50;99.90
11126;DHT22;5617;54.046;10.676;2022-07-03T00:39:53;18.50;99.90
11126;DHT22;5617;54.046;10.676;2022-07-03T00:42:03;18.50;99.90
11126;DHT22;5617;54.046;10.676;2022-07-03T00:44:11;18.60;99.90
11126;DHT22;5617;54.046;10.676;2022-07-03T00:46:22;18.60;99.90
11126;DHT22;5617;54.046;10.676;2022-07-03T00:48:32;18.60;99.90
11126;DHT22;5617;54.046;10.676;2022-07-03T00:50:47;18.60;99.90
11126;DHT22;5617;54.046;10.676;2022-07-03T00:52:57;18.60;99.90
11126;DHT22;5617;54.046;10.676;2022-07-03T00:55:07;18.60;99.90
11126;DHT22;5617;54.046;10.676;2022-07-03T00:57:16;18.60;99.90
11126;DHT22;5617;54.046;10.676;2022-07-03T00:59:24;18.60;99.90
11126;DHT22;5617;54.046;10.676;2022-07-03T01:01:33;18.60;99.90
11126;DHT22;5617;54.046;10.676;2022-07-03T01:03:44;18.60;99.90
11126;DHT22;5617;54.046;10.676;2022-07-03T01:05:55;18.60;99.90
11126;DHT22;5617;54.046;10.676;2022-07-03T01:08:11;18.60;99.90
11126;DHT22;5617;54.046;10.676;2022-07-03T01:10:26;18.50;99.90
11126;DHT22;5617;54.046;10.676;2022-07-03T01:12:45;18.50;99.90
11126;DHT22;5617;54.046;10.676;2022-07-03T01:15:02;18.50;99.90
11126;DHT22;5617;54.046;10.676;2022-07-03T01:17:20;18.40;99.90
11126;DHT22;5617;54.046;10.676;2022-07-03T01:19:37;18.50;99.90
11126;DHT22;5617;54.046;10.676;2022-07-03T01:21:55;18.40;99.90
11126;DHT22;5617;54.046;10.676;2022-07-03T01:24:25;18.40;99.90
11126;DHT22;5617;54.046;10.676;2022-07-03T01:26:39;18.40;99.90
11126;DHT22;5617;54.046;10.676;2022-07-03T01:28:48;18.40;99.90
11126;DHT22;5617;54.046;10.676;2022-07-03T01:30:57;18.40;99.90
11126;DHT22;5617;54.046;10.676;2022-07-03T01:33:11;18.40;99.90
11126;DHT22;5617;54.046;10.676;2022-07-03T01:35:22;18.40;99.90
11126;DHT22;5617;54.046;10.676;2022-07-03T01:37:34;18.40;99.90
11126;DHT22;5617;54.046;10.676;2022-07-03T01:39:44;18.40;99.90
11126;DHT22;5617;54.046;10.676;2022-07-03T01:41:55;18.40;99.90
11126;DHT22;5617;54.046;10.676;2022-07-03T01:44:06;18.40;99.90
11126;DHT22;5617;54.046;10.676;2022-07-03T01:46:16;18.50;99.90
11126;DHT22;5617;54.046;10.676;2022-07-03T01:48:25;18.40;99.90
11126;DHT22;5617;54.046;10.676;2022-07-03T01:50:33;18.30;99.90
11126;DHT22;5617;54.046;10.676;2022-07-03T01:52:42;18.30;99.90
11126;DHT22;5617;54.046;10.676;2022-07-03T01:54:54;18.30;99.90
11126;DHT22;5617;54.046;10.676;2022-07-03T01:57:05;18.30;99.90
11126;DHT22;5617;54.046;10.676;2022-07-03T01:59:14;18.30;99.90
11126;DHT22;5617;54.046;10.676;2022-07-03T02:01:25;18.30;99.90
11126;DHT22;5617;54.046;10.676;2022-07-03T02:03:41;18.30;99.90
11126;DHT22;5617;54.046;10.676;2022-07-03T02:05:53;18.20;99.90
11126;DHT22;5617;54.046;10.676;2022-07-03T02:08:08;18.40;99.90
11126;DHT22;5617;54.046;10.676;2022-07-03T02:10:23;18.30;99.80
11126;DHT22;5617;54.046;10.676;2022-07-03T02:12:39;18.20;99.60
11126;DHT22;5617;54.046;10.676;2022-07-03T02:14:53;18.20;99.50
11126;DHT22;5617;54.046;10.676;2022-07-03T02:17:12;18.20;99.40
11126;DHT22;5617;54.046;10.676;2022-07-03T02:19:24;18.20;99.30
11126;DHT22;5617;54.046;10.676;2022-07-03T02:21:40;18.20;99.20
11126;DHT22;5617;54.046;10.676;2022-07-03T02:23:53;18.30;99.10
11126;DHT22;5617;54.046;10.676;2022-07-03T02:26:03;18.30;98.90
11126;DHT22;5617;54.046;10.676;2022-07-03T02:28:29;18.30;98.90
11126;DHT22;5617;54.046;10.676;2022-07-03T02:30:43;18.20;98.70
11126;DHT22;5617;54.046;10.676;2022-07-03T02:33:01;18.30;98.60
11126;DHT22;5617;54.046;10.676;2022-07-03T02:35:11;18.30;98.80
11126;DHT22;5617;54.046;10.676;2022-07-03T02:37:22;18.30;98.40
11126;DHT22;5617;54.046;10.676;2022-07-03T02:39:35;18.30;98.30
11126;DHT22;5617;54.046;10.676;2022-07-03T02:41:49;18.30;98.20
11126;DHT22;5617;54.046;10.676;2022-07-03T02:44:04;18.30;98.20
11126;DHT22;5617;54.046;10.676;2022-07-03T02:46:18;18.30;98.10
11126;DHT22;5617;54.046;10.676;2022-07-03T02:48:47;18.30;98.00
11126;DHT22;5617;54.046;10.676;2022-07-03T02:51:01;18.40;98.00
11126;DHT22;5617;54.046;10.676;2022-07-03T02:53:19;18.30;97.90
11126;DHT22;5617;54.046;10.676;2022-07-03T02:55:39;18.30;97.80
11126;DHT22;5617;54.046;10.676;2022-07-03T02:57:51;18.30;97.70
11126;DHT22;5617;54.046;10.676;2022-07-03T03:00:06;18.30;97.70
11126;DHT22;5617;54.046;10.676;2022-07-03T03:02:19;18.30;97.70
11126;DHT22;5617;54.046;10.676;2022-07-03T03:04:31;18.30;97.70
11126;DHT22;5617;54.046;10.676;2022-07-03T03:06:42;18.20;97.50
11126;DHT22;5617;54.046;10.676;2022-07-03T03:09:00;18.20;97.50
11126;DHT22;5617;54.046;10.676;2022-07-03T03:11:23;18.20;97.40
11126;DHT22;5617;54.046;10.676;2022-07-03T03:13:32;18.30;97.30
11126;DHT22;5617;54.046;10.676;2022-07-03T03:15:58;18.30;97.20
11126;DHT22;5617;54.046;10.676;2022-07-03T03:18:11;18.30;97.20
11126;DHT22;5617;54.046;10.676;2022-07-03T03:20:26;18.30;97.10
11126;DHT22;5617;54.046;10.676;2022-07-03T03:22:43;18.30;97.00
11126;DHT22;5617;54.046;10.676;2022-07-03T03:24:55;18.30;97.30
11126;DHT22;5617;54.046;10.676;2022-07-03T03:27:04;18.30;96.90
11126;DHT22;5617;54.046;10.676;2022-07-03T03:29:12;18.30;96.80
11126;DHT22;5617;54.046;10.676;2022-07-03T03:31:21;18.40;96.70
11126;DHT22;5617;54.046;10.676;2022-07-03T03:33:30;18.40;96.70
11126;DHT22;5617;54.046;10.676;2022-07-03T03:35:38;18.40;96.70
11126;DHT22;5617;54.046;10.676;2022-07-03T03:37:46;18.40;96.60
11126;DHT22;5617;54.046;10.676;2022-07-03T03:39:54;18.40;96.60
11126;DHT22;5617;54.046;10.676;2022-07-03T03:42:03;18.40;96.60
11126;DHT22;5617;54.046;10.676;2022-07-03T03:44:11;18.40;96.50
11126;DHT22;5617;54.046;10.676;2022-07-03T03:46:20;18.40;96.40
11126;DHT22;5617;54.046;10.676;2022-07-03T03:48:28;18.40;96.40
11126;DHT22;5617;54.046;10.676;2022-07-03T03:50:36;18.50;96.30
11126;DHT22;5617;54.046;10.676;2022-07-03T03:52:43;18.50;96.30
11126;DHT22;5617;54.046;10.676;2022-07-03T03:54:51;18.50;96.20
11126;DHT22;5617;54.046;10.676;2022-07-03T03:57:15;18.60;96.20
11126;DHT22;5617;54.046;10.676;2022-07-03T03:59:22;18.60;96.10
11126;DHT22;5617;54.046;10.676;2022-07-03T04:01:31;18.60;96.00
11126;DHT22;5617;54.046;10.676;2022-07-03T04:03:39;18.70;96.00
11126;DHT22;5617;54.046;10.676;2022-07-03T04:05:47;18.70;96.00
11126;DHT22;5617;54.046;10.676;2022-07-03T04:07:56;18.80;95.90
11126;DHT22;5617;54.046;10.676;2022-07-03T04:10:05;18.70;95.70
11126;DHT22;5617;54.046;10.676;2022-07-03T04:12:14;18.80;95.80
11126;DHT22;5617;54.046;10.676;2022-07-03T04:14:22;18.80;95.60
11126;DHT22;5617;54.046;10.676;2022-07-03T04:16:33;18.80;95.60
11126;DHT22;5617;54.046;10.676;2022-07-03T04:18:41;18.80;95.50
11126;DHT22;5617;54.046;10.676;2022-07-03T04:20:49;18.80;95.50
11126;DHT22;5617;54.046;10.676;2022-07-03T04:22:56;18.90;95.50
11126;DHT22;5617;54.046;10.676;2022-07-03T04:25:04;18.80;95.40
11126;DHT22;5617;54.046;10.676;2022-07-03T04:27:12;18.90;95.40
11126;DHT22;5617;54.046;10.676;2022-07-03T04:29:20;18.90;95.50
11126;DHT22;5617;54.046;10.676;2022-07-03T04:31:27;18.90;95.80
11126;DHT22;5617;54.046;10.676;2022-07-03T04:33:36;19.00;95.40
11126;DHT22;5617;54.046;10.676;2022-07-03T04:35:44;19.00;95.40
11126;DHT22;5617;54.046;10.676;2022-07-03T04:37:52;19.10;95.30
11126;DHT22;5617;54.046;10.676;2022-07-03T04:39:59;19.10;95.20
11126;DHT22;5617;54.046;10.676;2022-07-03T04:42:07;19.20;95.20
11126;DHT22;5617;54.046;10.676;2022-07-03T04:44:14;19.20;95.20
11126;DHT22;5617;54.046;10.676;2022-07-03T04:46:23;19.30;95.20
11126;DHT22;5617;54.046;10.676;2022-07-03T04:48:30;19.30;95.20
11126;DHT22;5617;54.046;10.676;2022-07-03T04:50:40;19.40;95.20
11126;DHT22;5617;54.046;10.676;2022-07-03T04:52:47;19.40;95.30
11126;DHT22;5617;54.046;10.676;2022-07-03T04:54:55;19.50;95.30
11126;DHT22;5617;54.046;10.676;2022-07-03T04:57:03;19.60;95.30
11126;DHT22;5617;54.046;10.676;2022-07-03T04:59:10;19.60;95.20
11126;DHT22;5617;54.046;10.676;2022-07-03T05:01:18;19.60;95.20
11126;DHT22;5617;54.046;10.676;2022-07-03T05:03:25;19.60;95.00
11126;DHT22;5617;54.046;10.676;2022-07-03T05:05:33;19.70;95.10
11126;DHT22;5617;54.046;10.676;2022-07-03T05:07:42;19.70;95.10
11126;DHT22;5617;54.046;10.676;2022-07-03T05:09:50;19.70;94.90
11126;DHT22;5617;54.046;10.676;2022-07-03T05:11:58;19.80;94.90
11126;DHT22;5617;54.046;10.676;2022-07-03T05:14:05;19.80;94.90
11126;DHT22;5617;54.046;10.676;2022-07-03T05:16:13;19.80;94.80
11126;DHT22;5617;54.046;10.676;2022-07-03T05:18:20;19.80;94.70
11126;DHT22;5617;54.046;10.676;2022-07-03T05:20:28;19.80;94.60
11126;DHT22;5617;54.046;10.676;2022-07-03T05:22:36;19.90;94.60
11126;DHT22;5617;54.046;10.676;2022-07-03T05:24:44;19.90;94.60
11126;DHT22;5617;54.046;10.676;2022-07-03T05:26:52;19.90;94.60
11126;DHT22;5617;54.046;10.676;2022-07-03T05:29:00;19.90;94.60
11126;DHT22;5617;54.046;10.676;2022-07-03T05:31:07;19.90;94.60
11126;DHT22;5617;54.046;10.676;2022-07-03T05:33:15;19.90;94.60
11126;DHT22;5617;54.046;10.676;2022-07-03T05:35:22;19.90;94.40
11126;DHT22;5617;54.046;10.676;2022-07-03T05:37:30;20.00;94.70
11126;DHT22;5617;54.046;10.676;2022-07-03T05:39:37;20.10;94.40
11126;DHT22;5617;54.046;10.676;2022-07-03T05:41:46;20.20;94.50
11126;DHT22;5617;54.046;10.676;2022-07-03T05:43:54;20.20;94.40
11126;DHT22;5617;54.046;10.676;2022-07-03T05:46:01;20.30;94.30
11126;DHT22;5617;54.046;10.676;2022-07-03T05:48:10;20.30;94.30
11126;DHT22;5617;54.046;10.676;2022-07-03T05:50:18;20.30;94.30
11126;DHT22;5617;54.046;10.676;2022-07-03T05:52:26;20.30;94.30
11126;DHT22;5617;54.046;10.676;2022-07-03T05:54:33;20.30;94.30
11126;DHT22;5617;54.046;10.676;2022-07-03T05:56:41;20.30;94.30
11126;DHT22;5617;54.046;10.676;2022-07-03T05:58:50;20.40;94.20
11126;DHT22;5617;54.046;10.676;2022-07-03T06:00:58;20.50;94.30
11126;DHT22;5617;54.046;10.676;2022-07-03T06:03:05;20.70;94.30
11126;DHT22;5617;54.046;10.676;2022-07-03T06:05:13;20.80;94.30
11126;DHT22;5617;54.046;10.676;2022-07-03T06:07:20;21.00;94.20
11126;DHT22;5617;54.046;10.676;2022-07-03T06:09:28;21.10;94.00
11126;DHT22;5617;54.046;10.676;2022-07-03T06:11:36;21.20;94.10
11126;DHT22;5617;54.046;10.676;2022-07-03T06:13:43;21.20;93.90
11126;DHT22;5617;54.046;10.676;2022-07-03T06:15:52;21.20;93.70
11126;DHT22;5617;54.046;10.676;2022-07-03T06:18:00;21.20;93.80
11126;DHT22;5617;54.046;10.676;2022-07-03T06:20:09;21.20;93.80
11126;DHT22;5617;54.046;10.676;2022-07-03T06:22:17;21.30;93.70
11126;DHT22;5617;54.046;10.676;2022-07-03T06:24:25;21.40;93.60
11126;DHT22;5617;54.046;10.676;2022-07-03T06:26:32;21.60;93.50
11126;DHT22;5617;54.046;10.676;2022-07-03T06:28:40;21.80;93.30
11126;DHT22;5617;54.046;10.676;2022-07-03T06:30:51;21.80;93.00
11126;DHT22;5617;54.046;10.676;2022-07-03T06:32:59;21.90;92.80
11126;DHT22;5617;54.046;10.676;2022-07-03T06:35:07;22.00;92.70
11126;DHT22;5617;54.046;10.676;2022-07-03T06:37:15;22.10;92.90
11126;DHT22;5617;54.046;10.676;2022-07-03T06:39:22;22.20;92.50
11126;DHT22;5617;54.046;10.676;2022-07-03T06:41:30;22.40;92.30
11126;DHT22;5617;54.046;10.676;2022-07-03T06:43:38;22.40;92.10
11126;DHT22;5617;54.046;10.676;2022-07-03T06:45:46;22.60;92.00
11126;DHT22;5617;54.046;10.676;2022-07-03T06:47:55;22.50;92.00
11126;DHT22;5617;54.046;10.676;2022-07-03T06:50:02;22.50;92.10
11126;DHT22;5617;54.046;10.676;2022-07-03T06:52:10;22.40;92.10
11126;DHT22;5617;54.046;10.676;2022-07-03T06:54:28;22.40;92.10
11126;DHT22;5617;54.046;10.676;2022-07-03T06:56:35;22.50;92.00
11126;DHT22;5617;54.046;10.676;2022-07-03T06:58:43;22.60;91.90
11126;DHT22;5617;54.046;10.676;2022-07-03T07:00:50;22.80;91.90
11126;DHT22;5617;54.046;10.676;2022-07-03T07:02:59;23.00;91.60
11126;DHT22;5617;54.046;10.676;2022-07-03T07:05:07;23.10;91.40
11126;DHT22;5617;54.046;10.676;2022-07-03T07:07:16;23.30;91.40
11126;DHT22;5617;54.046;10.676;2022-07-03T07:09:24;23.40;91.20
11126;DHT22;5617;54.046;10.676;2022-07-03T07:11:32;23.50;90.90
11126;DHT22;5617;54.046;10.676;2022-07-03T07:13:40;23.60;90.40
11126;DHT22;5617;54.046;10.676;2022-07-03T07:15:47;23.70;90.40
11126;DHT22;5617;54.046;10.676;2022-07-03T07:17:55;23.80;90.20
11126;DHT22;5617;54.046;10.676;2022-07-03T07:20:05;23.90;89.40
11126;DHT22;5617;54.046;10.676;2022-07-03T07:22:13;24.00;89.40
11126;DHT22;5617;54.046;10.676;2022-07-03T07:24:20;24.10;88.70
11126;DHT22;5617;54.046;10.676;2022-07-03T07:26:27;24.10;88.70
11126;DHT22;5617;54.046;10.676;2022-07-03T07:28:35;24.10;88.00
11126;DHT22;5617;54.046;10.676;2022-07-03T07:30:43;24.20;88.10
11126;DHT22;5617;54.046;10.676;2022-07-03T07:32:50;24.30;87.60
11126;DHT22;5617;54.046;10.676;2022-07-03T07:34:57;24.40;86.90
11126;DHT22;5617;54.046;10.676;2022-07-03T07:37:06;24.50;86.20
11126;DHT22;5617;54.046;10.676;2022-07-03T07:39:14;24.60;85.30
11126;DHT22;5617;54.046;10.676;2022-07-03T07:41:21;24.70;85.30
11126;DHT22;5617;54.046;10.676;2022-07-03T07:43:29;24.70;84.80
11126;DHT22;5617;54.046;10.676;2022-07-03T07:45:36;24.70;84.50
11126;DHT22;5617;54.046;10.676;2022-07-03T07:47:44;24.90;84.50
11126;DHT22;5617;54.046;10.676;2022-07-03T07:49:52;25.10;84.10
11126;DHT22;5617;54.046;10.676;2022-07-03T07:51:59;25.10;83.70
11126;DHT22;5617;54.046;10.676;2022-07-03T07:54:08;25.20;82.90
11126;DHT22;5617;54.046;10.676;2022-07-03T07:56:15;25.30;83.10
11126;DHT22;5617;54.046;10.676;2022-07-03T07:58:23;25.40;83.10
11126;DHT22;5617;54.046;10.676;2022-07-03T08:00:30;25.50;82.70
11126;DHT22;5617;54.046;10.676;2022-07-03T08:02:41;25.50;82.00
11126;DHT22;5617;54.046;10.676;2022-07-03T08:05:07;25.50;82.10
11126;DHT22;5617;54.046;10.676;2022-07-03T08:07:32;25.60;82.70
11126;DHT22;5617;54.046;10.676;2022-07-03T08:09:41;25.70;81.60
11126;DHT22;5617;54.046;10.676;2022-07-03T08:11:49;25.70;81.60
11126;DHT22;5617;54.046;10.676;2022-07-03T08:13:56;25.70;81.80
11126;DHT22;5617;54.046;10.676;2022-07-03T08:16:05;25.80;81.40
11126;DHT22;5617;54.046;10.676;2022-07-03T08:18:12;26.00;81.40
11126;DHT22;5617;54.046;10.676;2022-07-03T08:20:20;26.00;80.80
11126;DHT22;5617;54.046;10.676;2022-07-03T08:22:28;26.10;80.40
11126;DHT22;5617;54.046;10.676;2022-07-03T08:24:36;26.10;80.20
11126;DHT22;5617;54.046;10.676;2022-07-03T08:26:46;26.20;80.00
11126;DHT22;5617;54.046;10.676;2022-07-03T08:28:53;26.30;79.30
11126;DHT22;5617;54.046;10.676;2022-07-03T08:31:01;26.30;79.20
11126;DHT22;5617;54.046;10.676;2022-07-03T08:33:08;26.40;79.60
11126;DHT22;5617;54.046;10.676;2022-07-03T08:35:16;26.50;79.00
11126;DHT22;5617;54.046;10.676;2022-07-03T08:37:26;26.50;79.00
11126;DHT22;5617;54.046;10.676;2022-07-03T08:39:33;26.50;78.90
11126;DHT22;5617;54.046;10.676;2022-07-03T08:41:41;26.60;79.30
11126;DHT22;5617;54.046;10.676;2022-07-03T08:43:51;26.70;78.50
11126;DHT22;5617;54.046;10.676;2022-07-03T08:45:59;26.70;78.60
11126;DHT22;5617;54.046;10.676;2022-07-03T08:48:09;26.80;78.80
11126;DHT22;5617;54.046;10.676;2022-07-03T08:50:18;26.90;78.60
11126;DHT22;5617;54.046;10.676;2022-07-03T08:52:26;27.00;78.40
11126;DHT22;5617;54.046;10.676;2022-07-03T08:54:34;27.20;78.40
11126;DHT22;5617;54.046;10.676;2022-07-03T08:56:42;27.50;78.20
11126;DHT22;5617;54.046;10.676;2022-07-03T08:58:51;27.40;78.10
11126;DHT22;5617;54.046;10.676;2022-07-03T09:00:59;27.40;77.90
11126;DHT22;5617;54.046;10.676;2022-07-03T09:03:10;27.50;77.70
11126;DHT22;5617;54.046;10.676;2022-07-03T09:05:17;27.70;77.40
11126;DHT22;5617;54.046;10.676;2022-07-03T09:07:26;27.80;77.60
11126;DHT22;5617;54.046;10.676;2022-07-03T09:09:34;28.00;77.20
11126;DHT22;5617;54.046;10.676;2022-07-03T09:11:41;28.10;77.50
11126;DHT22;5617;54.046;10.676;2022-07-03T09:13:50;28.10;77.10
11126;DHT22;5617;54.046;10.676;2022-07-03T09:15:58;28.00;77.30
11126;DHT22;5617;54.046;10.676;2022-07-03T09:18:06;27.60;76.80
11126;DHT22;5617;54.046;10.676;2022-07-03T09:20:14;27.40;77.60
11126;DHT22;5617;54.046;10.676;2022-07-03T09:22:23;27.20;78.00
11126;DHT22;5617;54.046;10.676;2022-07-03T09:24:32;27.20;78.30
11126;DHT22;5617;54.046;10.676;2022-07-03T09:26:50;27.10;78.80
11126;DHT22;5617;54.046;10.676;2022-07-03T09:28:59;27.10;78.80
11126;DHT22;5617;54.046;10.676;2022-07-03T09:31:07;27.20;79.40
11126;DHT22;5617;54.046;10.676;2022-07-03T09:33:18;27.40;79.40
11126;DHT22;5617;54.046;10.676;2022-07-03T09:35:26;27.70;77.80
11126;DHT22;5617;54.046;10.676;2022-07-03T09:37:34;28.00;77.10
11126;DHT22;5617;54.046;10.676;2022-07-03T09:39:42;28.30;76.30
11126;DHT22;5617;54.046;10.676;2022-07-03T09:41:55;28.40;76.20
11126;DHT22;5617;54.046;10.676;2022-07-03T09:44:05;28.60;75.40
11126;DHT22;5617;54.046;10.676;2022-07-03T09:46:13;28.60;74.60
11126;DHT22;5617;54.046;10.676;2022-07-03T09:48:25;28.50;76.10
11126;DHT22;5617;54.046;10.676;2022-07-03T09:50:32;28.70;76.50
11126;DHT22;5617;54.046;10.676;2022-07-03T09:52:42;28.90;74.70
11126;DHT22;5617;54.046;10.676;2022-07-03T09:54:50;29.00;73.80
11126;DHT22;5617;54.046;10.676;2022-07-03T09:56:58;28.90;73.00
11126;DHT22;5617;54.046;10.676;2022-07-03T09:59:11;28.60;73.20
11126;DHT22;5617;54.046;10.676;2022-07-03T10:01:20;28.40;73.10
11126;DHT22;5617;54.046;10.676;2022-07-03T10:03:28;28.20;74.00
11126;DHT22;5617;54.046;10.676;2022-07-03T10:05:37;28.10;74.00
11126;DHT22;5617;54.046;10.676;2022-07-03T10:07:52;28.00;73.70
11126;DHT22;5617;54.046;10.676;2022-07-03T10:10:00;27.80;73.50
11126;DHT22;5617;54.046;10.676;2022-07-03T10:12:08;27.70;73.60
11126;DHT22;5617;54.046;10.676;2022-07-03T10:14:19;27.60;73.90
11126;DHT22;5617;54.046;10.676;2022-07-03T10:16:27;27.60;74.10
11126;DHT22;5617;54.046;10.676;2022-07-03T10:18:36;27.60;74.90
11126;DHT22;5617;54.046;10.676;2022-07-03T10:20:46;27.80;76.10
11126;DHT22;5617;54.046;10.676;2022-07-03T10:22:54;28.00;75.40
11126;DHT22;5617;54.046;10.676;2022-07-03T10:25:02;28.30;75.80
11126;DHT22;5617;54.046;10.676;2022-07-03T10:27:10;28.50;74.30
11126;DHT22;5617;54.046;10.676;2022-07-03T10:29:20;28.40;74.20
11126;DHT22;5617;54.046;10.676;2022-07-03T10:31:28;28.30;74.10
11126;DHT22;5617;54.046;10.676;2022-07-03T10:33:36;28.10;73.70
11126;DHT22;5617;54.046;10.676;2022-07-03T10:35:48;28.00;74.40
11126;DHT22;5617;54.046;10.676;2022-07-03T10:38:04;28.10;74.80
11126;DHT22;5617;54.046;10.676;2022-07-03T10:40:22;28.20;74.80
11126;DHT22;5617;54.046;10.676;2022-07-03T10:43:00;28.30;74.20
11126;DHT22;5617;54.046;10.676;2022-07-03T10:45:28;28.20;73.90
11126;DHT22;5617;54.046;10.676;2022-07-03T10:47:43;28.10;73.80
11126;DHT22;5617;54.046;10.676;2022-07-03T10:50:00;28.20;73.70
11126;DHT22;5617;54.046;10.676;2022-07-03T10:52:16;28.30;73.50
11126;DHT22;5617;54.046;10.676;2022-07-03T10:54:25;28.60;75.00
11126;DHT22;5617;54.046;10.676;2022-07-03T10:57:09;28.90;73.60
11126;DHT22;5617;54.046;10.676;2022-07-03T10:59:16;29.00;72.50
11126;DHT22;5617;54.046;10.676;2022-07-03T11:01:29;29.40;72.70
11126;DHT22;5617;54.046;10.676;2022-07-03T11:03:52;29.40;73.00
11126;DHT22;5617;54.046;10.676;2022-07-03T11:06:01;29.30;73.70
11126;DHT22;5617;54.046;10.676;2022-07-03T11:08:12;29.30;73.50
11126;DHT22;5617;54.046;10.676;2022-07-03T11:10:33;29.60;74.10
11126;DHT22;5617;54.046;10.676;2022-07-03T11:12:56;30.10;73.70
11126;DHT22;5617;54.046;10.676;2022-07-03T11:15:26;30.50;71.90
11126;DHT22;5617;54.046;10.676;2022-07-03T11:17:35;30.80;71.50
11126;DHT22;5617;54.046;10.676;2022-07-03T11:19:43;31.30;70.60
11126;DHT22;5617;54.046;10.676;2022-07-03T11:22:17;31.10;70.30
11126;DHT22;5617;54.046;10.676;2022-07-03T11:24:38;30.90;69.60
11126;DHT22;5617;54.046;10.676;2022-07-03T11:26:47;30.60;69.80
11126;DHT22;5617;54.046;10.676;2022-07-03T11:29:28;30.30;69.40
11126;DHT22;5617;54.046;10.676;2022-07-03T11:31:36;30.20;69.10
11126;DHT22;5617;54.046;10.676;2022-07-03T11:33:45;30.10;69.70
11126;DHT22;5617;54.046;10.676;2022-07-03T11:35:53;30.00;70.00
11126;DHT22;5617;54.046;10.676;2022-07-03T11:38:02;29.70;70.30
11126;DHT22;5617;54.046;10.676;2022-07-03T11:40:10;29.50;70.90
11126;DHT22;5617;54.046;10.676;2022-07-03T11:42:17;29.40;70.70
11126;DHT22;5617;54.046;10.676;2022-07-03T11:44:25;29.30;70.40
11126;DHT22;5617;54.046;10.676;2022-07-03T11:46:35;29.10;69.70
11126;DHT22;5617;54.046;10.676;2022-07-03T11:48:42;29.10;69.40
11126;DHT22;5617;54.046;10.676;2022-07-03T11:50:52;29.00;69.90
11126;DHT22;5617;54.046;10.676;2022-07-03T11:53:00;29.10;69.70
11126;DHT22;5617;54.046;10.676;2022-07-03T11:55:09;29.30;69.70
11126;DHT22;5617;54.046;10.676;2022-07-03T11:57:16;29.20;69.90
11126;DHT22;5617;54.046;10.676;2022-07-03T11:59:24;29.20;70.10
11126;DHT22;5617;54.046;10.676;2022-07-03T12:01:33;29.00;70.00
11126;DHT22;5617;54.046;10.676;2022-07-03T12:03:41;29.10;69.90
11126;DHT22;5617;54.046;10.676;2022-07-03T12:05:57;28.80;70.20
11126;DHT22;5617;54.046;10.676;2022-07-03T12:08:06;28.70;70.40
11126;DHT22;5617;54.046;10.676;2022-07-03T12:10:13;28.50;71.00
11126;DHT22;5617;54.046;10.676;2022-07-03T12:12:23;28.30;71.70
11126;DHT22;5617;54.046;10.676;2022-07-03T12:14:45;28.20;72.10
11126;DHT22;5617;54.046;10.676;2022-07-03T12:16:53;28.10;72.60
11126;DHT22;5617;54.046;10.676;2022-07-03T12:19:04;28.10;73.00
11126;DHT22;5617;54.046;10.676;2022-07-03T12:21:14;28.10;73.70
11126;DHT22;5617;54.046;10.676;2022-07-03T12:23:22;28.00;74.10
11126;DHT22;5617;54.046;10.676;2022-07-03T12:25:30;28.00;74.00
11126;DHT22;5617;54.046;10.676;2022-07-03T12:27:39;27.70;74.30
11126;DHT22;5617;54.046;10.676;2022-07-03T12:29:47;27.70;74.30
11126;DHT22;5617;54.046;10.676;2022-07-03T12:31:55;27.60;74.30
11126;DHT22;5617;54.046;10.676;2022-07-03T12:34:03;28.00;74.40
11126;DHT22;5617;54.046;10.676;2022-07-03T12:36:11;28.40;74.30
11126;DHT22;5617;54.046;10.676;2022-07-03T12:38:30;28.80;72.80
11126;DHT22;5617;54.046;10.676;2022-07-03T12:40:38;29.20;72.10
11126;DHT22;5617;54.046;10.676;2022-07-03T12:42:47;29.30;71.40
11126;DHT22;5617;54.046;10.676;2022-07-03T12:44:56;29.30;70.80
11126;DHT22;5617;54.046;10.676;2022-07-03T12:47:05;29.40;70.50
11126;DHT22;5617;54.046;10.676;2022-07-03T12:49:14;29.70;70.50
11126;DHT22;5617;54.046;10.676;2022-07-03T12:51:39;29.90;68.50
11126;DHT22;5617;54.046;10.676;2022-07-03T12:53:55;30.10;68.10
11126;DHT22;5617;54.046;10.676;2022-07-03T12:56:03;30.20;68.70
11126;DHT22;5617;54.046;10.676;2022-07-03T12:58:12;30.30;68.00
11126;DHT22;5617;54.046;10.676;2022-07-03T13:00:43;30.60;66.50
11126;DHT22;5617;54.046;10.676;2022-07-03T13:02:55;30.40;65.70
11126;DHT22;5617;54.046;10.676;2022-07-03T13:05:15;30.40;66.00
11126;DHT22;5617;54.046;10.676;2022-07-03T13:07:23;30.60;66.40
11126;DHT22;5617;54.046;10.676;2022-07-03T13:09:36;30.80;66.20
11126;DHT22;5617;54.046;10.676;2022-07-03T13:11:44;30.80;65.40
11126;DHT22;5617;54.046;10.676;2022-07-03T13:13:51;31.00;65.30
11126;DHT22;5617;54.046;10.676;2022-07-03T13:15:59;30.80;64.90
11126;DHT22;5617;54.046;10.676;2022-07-03T13:18:06;31.00;65.00
11126;DHT22;5617;54.046;10.676;2022-07-03T13:20:19;30.80;63.90
11126;DHT22;5617;54.046;10.676;2022-07-03T13:22:26;30.90;64.30
11126;DHT22;5617;54.046;10.676;2022-07-03T13:24:35;30.80;64.10
11126;DHT22;5617;54.046;10.676;2022-07-03T13:26:42;30.90;63.70
11126;DHT22;5617;54.046;10.676;2022-07-03T13:28:52;31.00;62.70
11126;DHT22;5617;54.046;10.676;2022-07-03T13:31:00;31.10;61.90
11126;DHT22;5617;54.046;10.676;2022-07-03T13:33:08;31.10;62.10
11126;DHT22;5617;54.046;10.676;2022-07-03T13:35:16;31.40;61.30
11126;DHT22;5617;54.046;10.676;2022-07-03T13:37:23;31.50;60.80
11126;DHT22;5617;54.046;10.676;2022-07-03T13:39:31;31.70;59.00
11126;DHT22;5617;54.046;10.676;2022-07-03T13:41:40;31.60;57.60
11126;DHT22;5617;54.046;10.676;2022-07-03T13:43:47;31.60;56.60